createdAt,value
2022-09-07T02:15:25.284Z,9.78
2022-09-07T02:17:59.105Z,9.81
2022-09-07T02:20:33.224Z,9.86
2022-09-07T02:23:04.637Z,9.91
2022-09-07T02:25:41.973Z,9.93
2022-09-07T02:28:12.432Z,9.96
2022-09-07T02:30:39.173Z,10.03
2022-09-07T02:33:06.404Z,10.09
2022-09-07T02:35:33.548Z,10.13
2022-09-07T02:38:04.431Z,10.11
2022-09-07T02:55:50.904Z,10.20
2022-09-07T02:58:39.470Z,10.18
2022-09-07T03:01:37.537Z,10.17
2022-09-07T03:04:19.353Z,10.22
2022-09-07T03:06:59.610Z,10.27
2022-09-07T03:09:32.604Z,10.29
2022-09-07T03:12:03.132Z,10.34
2022-09-07T03:17:04.902Z,10.36
2022-09-07T03:19:31.516Z,10.40
2022-09-07T03:21:58.081Z,10.41
2022-09-07T03:24:24.730Z,10.44
2022-09-07T03:26:54.171Z,10.44
2022-09-07T03:29:21.101Z,10.45
2022-09-07T03:31:47.713Z,10.46
2022-09-07T03:42:59.132Z,10.60
2022-09-07T03:45:25.705Z,10.58
2022-09-07T03:47:52.390Z,10.51
2022-09-07T03:59:14.019Z,10.63
2022-09-07T04:01:40.742Z,10.66
2022-09-07T04:04:07.344Z,10.67
2022-09-07T04:06:34.002Z,10.70
2022-09-07T04:29:30.073Z,10.47
2022-09-07T04:31:56.657Z,10.43
2022-09-07T04:34:23.267Z,10.46
2022-09-07T04:36:49.809Z,10.50
2022-09-07T05:24:35.043Z,10.49
2022-09-07T05:27:02.862Z,10.50
2022-09-07T05:32:16.538Z,10.49
2022-09-07T05:34:43.184Z,10.48
2022-09-07T05:37:09.818Z,10.46
2022-09-07T05:39:36.423Z,10.48
2022-09-07T05:42:03.124Z,10.53
2022-09-07T06:03:49.032Z,10.93
2022-09-07T06:06:18.853Z,10.98
2022-09-07T06:08:49.017Z,11.04
2022-09-07T06:56:19.177Z,12.41
2022-09-07T06:58:46.358Z,12.49
2022-09-07T07:01:14.139Z,12.60
2022-09-07T07:03:41.842Z,12.74
2022-09-07T07:06:09.032Z,12.89
2022-09-07T07:08:36.379Z,12.97
2022-09-07T07:11:05.757Z,13.03
2022-09-07T07:13:32.376Z,13.11
2022-09-07T07:16:04.900Z,13.23
2022-09-07T07:20:56.636Z,13.45
2022-09-07T07:23:23.261Z,13.53
2022-09-07T07:25:50.015Z,13.61
2022-09-07T07:31:09.461Z,13.91
2022-09-07T07:33:38.966Z,14.07
2022-09-07T07:36:17.767Z,14.24
2022-09-07T07:39:03.349Z,14.42
2022-09-07T07:58:06.011Z,15.22
2022-09-07T08:00:52.901Z,15.42
2022-09-07T08:03:19.070Z,15.56
2022-09-07T08:05:45.574Z,15.76
2022-09-07T08:08:12.183Z,15.91
2022-09-07T08:10:38.951Z,16.08
2022-09-07T08:13:05.673Z,16.26
2022-09-07T08:15:32.215Z,16.38
2022-09-07T08:17:59.019Z,16.42
2022-09-07T08:20:25.515Z,16.58
2022-09-07T08:22:52.240Z,16.67
2022-09-07T08:25:19.351Z,16.71
2022-09-07T08:27:45.818Z,16.86
2022-09-07T09:05:23.153Z,18.66
2022-09-07T09:08:06.938Z,18.73
2022-09-07T09:10:42.248Z,18.71
2022-09-07T09:13:19.482Z,18.79
2022-09-07T09:19:13.408Z,19.01
2022-09-07T09:21:40.720Z,19.11
2022-09-07T09:24:34.008Z,19.16
2022-09-07T09:27:00.482Z,19.20
2022-09-07T09:29:26.960Z,19.44
2022-09-07T09:31:53.666Z,19.51
2022-09-07T09:34:24.005Z,19.53
2022-09-07T09:36:54.808Z,19.59
2022-09-07T09:39:30.481Z,19.67
2022-09-07T09:42:14.344Z,19.80
2022-09-07T09:44:42.408Z,19.93
2022-09-07T09:47:30.255Z,20.04
2022-09-07T09:49:59.626Z,20.13
2022-09-07T09:52:30.162Z,20.20
2022-09-07T09:55:17.283Z,20.30
2022-09-07T10:03:59.727Z,20.61
2022-09-07T10:06:27.921Z,20.58
2022-09-07T10:09:00.778Z,20.66
2022-09-07T10:14:42.056Z,20.85
2022-09-07T10:19:43.101Z,20.97
2022-09-07T10:22:51.676Z,21.07
2022-09-07T10:25:37.450Z,21.14
2022-09-07T10:28:06.227Z,21.24
2022-09-07T10:30:46.160Z,21.33
2022-09-07T10:33:42.330Z,21.42
2022-09-07T10:36:47.383Z,21.36
2022-09-07T10:39:22.060Z,21.33
2022-09-07T10:42:21.736Z,21.31
2022-09-07T10:45:19.598Z,21.31
2022-09-07T10:48:16.313Z,21.33
2022-09-07T10:50:53.631Z,21.35
2022-09-07T10:57:08.275Z,21.36
2022-09-07T11:03:32.685Z,21.44
2022-09-07T11:06:05.622Z,21.52
2022-09-07T11:15:03.823Z,21.57
2022-09-07T11:17:34.898Z,21.55
2022-09-07T11:20:19.983Z,21.52
2022-09-07T11:23:18.637Z,21.49
2022-09-07T11:26:04.141Z,21.48
2022-09-07T11:28:47.627Z,21.50
2022-09-07T11:31:37.117Z,21.49
2022-09-07T11:34:24.979Z,21.48
2022-09-07T11:37:13.853Z,21.47
2022-09-07T11:39:46.097Z,21.44
2022-09-07T11:42:48.293Z,21.46
2022-09-07T11:45:30.852Z,21.51
2022-09-07T11:48:31.044Z,21.51
2022-09-07T11:51:21.294Z,21.54
2022-09-07T11:53:56.152Z,21.57
2022-09-07T11:56:38.169Z,21.60
2022-09-07T11:59:36.818Z,21.72
2022-09-07T12:02:42.322Z,21.89
2022-09-07T12:05:43.952Z,21.89
2022-09-07T12:08:41.418Z,21.89
2022-09-07T12:11:10.953Z,21.94
2022-09-07T12:13:46.594Z,21.98
2022-09-07T12:16:13.161Z,21.97
2022-09-07T12:19:03.974Z,21.92
2022-09-07T12:21:51.312Z,21.87
2022-09-07T12:24:41.404Z,21.85
2022-09-07T12:27:30.557Z,21.83
2022-09-07T12:29:56.977Z,21.84
2022-09-07T12:32:57.140Z,21.81
2022-09-07T12:35:33.713Z,21.80
2022-09-07T12:38:13.605Z,21.79
2022-09-07T12:40:46.593Z,21.73
2022-09-07T12:43:13.122Z,21.72
2022-09-07T12:45:39.618Z,21.70
2022-09-07T12:48:15.443Z,21.68
2022-09-07T12:51:03.633Z,21.64
2022-09-07T12:53:44.863Z,21.68
2022-09-07T12:56:41.957Z,21.68
2022-09-07T12:59:40.177Z,21.68
2022-09-07T13:02:06.686Z,21.69
2022-09-07T13:04:36.138Z,21.68
2022-09-07T13:07:27.424Z,21.61
2022-09-07T13:10:20.763Z,21.63
2022-09-07T13:12:54.776Z,21.62
2022-09-07T13:15:46.970Z,21.63
2022-09-07T13:18:25.909Z,21.62
2022-09-07T13:21:07.249Z,21.58
2022-09-07T13:23:35.862Z,21.59
2022-09-07T13:26:04.748Z,21.57
2022-09-07T13:28:54.779Z,21.55
2022-09-07T13:31:48.502Z,21.52
2022-09-07T13:34:49.528Z,21.48
2022-09-07T13:37:25.871Z,21.50
2022-09-07T13:39:55.173Z,21.53
2022-09-07T13:42:21.630Z,21.61
2022-09-07T13:44:54.608Z,21.71
2022-09-07T13:47:55.884Z,21.84
2022-09-07T13:50:45.037Z,21.96
2022-09-07T13:53:20.458Z,21.99
2022-09-07T13:56:16.913Z,21.97
2022-09-07T13:58:48.033Z,21.92
2022-09-07T14:01:32.979Z,21.88
2022-09-07T14:04:07.469Z,21.87
2022-09-07T14:06:38.352Z,21.84
2022-09-07T14:09:13.746Z,21.83
2022-09-07T14:11:41.823Z,21.84
2022-09-07T14:14:20.347Z,21.82
2022-09-07T14:17:01.594Z,21.85
2022-09-07T14:19:47.861Z,21.86
2022-09-07T14:22:23.292Z,21.87
2022-09-07T14:24:55.644Z,21.86
2022-09-07T14:27:22.121Z,21.85
2022-09-07T14:29:48.676Z,21.89
2022-09-07T14:32:24.185Z,21.94
2022-09-07T14:34:52.225Z,22.02
2022-09-07T14:37:22.236Z,22.07
2022-09-07T14:39:50.758Z,22.11
2022-09-07T14:42:22.893Z,22.11
2022-09-07T14:44:50.263Z,22.11
2022-09-07T14:47:29.301Z,22.10
2022-09-07T14:49:58.228Z,22.09
2022-09-07T14:52:42.472Z,22.09
2022-09-07T14:55:44.952Z,22.12
2022-09-07T14:58:14.330Z,22.09
2022-09-07T15:00:43.657Z,22.10
2022-09-07T15:03:32.146Z,22.07
2022-09-07T15:06:01.454Z,22.07
2022-09-07T15:08:44.438Z,22.03
2022-09-07T15:11:36.176Z,22.02
2022-09-07T15:14:08.706Z,22.01
2022-09-07T15:16:39.262Z,22.02
2022-09-07T15:19:14.959Z,22.02
2022-09-07T15:21:42.572Z,21.97
2022-09-07T15:24:09.773Z,21.95
2022-09-07T15:29:29.751Z,21.99
2022-09-07T15:32:03.279Z,22.02
2022-09-07T15:34:31.470Z,22.07
2022-09-07T15:37:00.216Z,22.08
2022-09-07T15:39:29.774Z,22.11
2022-09-07T15:41:57.814Z,22.13
2022-09-07T15:44:28.025Z,22.14
2022-09-07T15:49:46.027Z,22.14
2022-09-07T15:52:15.957Z,22.12
2022-09-07T15:55:00.838Z,22.11
2022-09-07T16:00:15.895Z,22.11
2022-09-07T16:05:31.162Z,22.06
2022-09-07T16:10:44.856Z,21.92
2022-09-07T16:13:16.371Z,21.87
2022-09-07T16:15:47.959Z,21.80
2022-09-07T16:18:17.461Z,21.74
2022-09-07T16:20:44.328Z,21.68
2022-09-07T16:23:15.016Z,21.55
2022-09-07T16:25:43.404Z,21.45
2022-09-07T16:28:10.873Z,21.36
2022-09-07T16:30:40.710Z,21.23
2022-09-07T16:33:07.852Z,21.12
2022-09-07T16:35:34.546Z,20.99
2022-09-07T16:40:50.118Z,20.78
2022-09-07T16:43:17.128Z,20.67
2022-09-07T16:48:32.117Z,20.52
2022-09-07T16:51:02.044Z,20.39
2022-09-07T16:53:31.236Z,20.27
2022-09-07T16:56:02.340Z,20.17
2022-09-07T16:58:37.526Z,20.08
2022-09-07T17:01:16.703Z,20.01
2022-09-07T17:03:44.130Z,19.89
2022-09-07T17:06:13.958Z,19.78
2022-09-07T17:08:41.450Z,19.65
2022-09-07T17:11:14.209Z,19.54
2022-09-07T17:13:41.919Z,19.47
2022-09-07T17:16:12.596Z,19.38
2022-09-07T17:21:33.202Z,19.16
2022-09-07T17:24:00.563Z,19.04
2022-09-07T17:26:27.514Z,18.95
2022-09-07T17:28:56.656Z,18.85
2022-09-07T17:34:21.148Z,18.69
2022-09-07T17:36:48.146Z,18.54
2022-09-07T17:39:17.267Z,18.45
2022-09-07T17:41:45.602Z,18.34
2022-09-07T17:44:12.418Z,18.21
2022-09-07T17:46:39.212Z,18.13
2022-09-07T17:49:09.609Z,18.06
2022-09-07T17:51:36.352Z,17.97
2022-09-07T17:54:09.643Z,17.86
2022-09-07T17:56:36.598Z,17.84
2022-09-07T18:01:50.915Z,17.74
2022-09-07T18:04:17.614Z,17.68
2022-09-07T18:06:44.192Z,17.59
2022-09-07T18:09:11.106Z,17.53
2022-09-07T18:11:46.398Z,17.45
2022-09-07T18:14:14.819Z,17.46
2022-09-07T18:16:43.032Z,17.39
2022-09-07T18:19:11.551Z,17.30
2022-09-07T18:21:40.930Z,17.24
2022-09-07T18:24:19.439Z,17.22
2022-09-07T18:26:51.492Z,17.14
2022-09-07T18:29:33.027Z,17.08
2022-09-07T18:32:08.667Z,17.05
2022-09-07T18:34:37.046Z,17.00
2022-09-07T18:37:03.840Z,16.90
2022-09-07T18:39:30.501Z,16.82
2022-09-07T18:41:57.241Z,16.76
2022-09-07T18:47:21.067Z,16.58
2022-09-07T18:49:49.554Z,16.48
2022-09-07T18:55:03.677Z,16.43
2022-09-07T18:57:30.246Z,16.38
2022-09-07T18:59:56.914Z,16.28
2022-09-07T19:02:23.476Z,16.18
2022-09-07T19:07:36.510Z,16.08
2022-09-07T19:10:06.278Z,16.01
2022-09-07T19:12:32.757Z,15.95
2022-09-07T19:14:59.231Z,15.89
2022-09-07T19:17:25.732Z,15.88
2022-09-07T19:19:52.921Z,15.89
2022-09-07T19:22:19.435Z,15.83
2022-09-07T19:24:45.918Z,15.76
2022-09-07T19:27:12.444Z,15.75
2022-09-07T19:29:38.968Z,15.68
2022-09-07T19:32:06.926Z,15.59
2022-09-07T19:34:36.549Z,15.54
2022-09-07T19:37:05.704Z,15.48
2022-09-07T19:39:32.262Z,15.40
2022-09-07T19:41:58.855Z,15.39
2022-09-07T19:44:25.355Z,15.38
2022-09-07T19:46:52.080Z,15.32
2022-09-07T19:49:18.646Z,15.25
2022-09-07T19:51:45.911Z,15.19
2022-09-07T19:54:13.688Z,15.19
2022-09-07T19:56:42.761Z,15.14
2022-09-07T19:59:09.516Z,15.04
2022-09-07T20:01:36.287Z,14.98
2022-09-07T20:04:05.835Z,14.93
2022-09-07T20:06:33.466Z,14.93
2022-09-07T20:09:01.416Z,14.92
2022-09-07T20:11:28.725Z,14.85
2022-09-07T20:13:57.141Z,14.78
2022-09-07T20:16:24.616Z,14.73
2022-09-07T20:18:51.556Z,14.69
2022-09-07T20:21:24.697Z,14.64
2022-09-07T20:23:51.746Z,14.58
2022-09-07T20:26:20.761Z,14.60
2022-09-07T20:29:01.962Z,14.58
2022-09-07T20:31:39.072Z,14.56
2022-09-07T20:34:05.595Z,14.53
2022-09-07T20:36:32.128Z,14.48
2022-09-07T20:38:58.625Z,14.43
2022-09-07T20:41:31.330Z,14.43
2022-09-07T20:44:00.175Z,14.36
2022-09-07T20:46:28.882Z,14.29
2022-09-07T20:48:55.911Z,14.23
2022-09-07T20:51:22.528Z,14.24
2022-09-07T20:53:50.003Z,14.25
2022-09-07T20:56:19.272Z,14.28
2022-09-07T20:58:47.306Z,14.27
2022-09-07T21:01:19.519Z,14.28
2022-09-07T21:03:51.325Z,14.26
2022-09-07T21:06:19.045Z,14.25
2022-09-07T21:08:47.433Z,14.21
2022-09-07T21:11:22.460Z,14.12
2022-09-07T21:13:59.509Z,14.06
2022-09-07T21:16:27.185Z,14.02
2022-09-07T21:18:56.163Z,13.97
2022-09-07T21:21:24.386Z,13.93
2022-09-07T21:24:01.751Z,13.92
2022-09-07T21:26:28.804Z,13.89
2022-09-07T21:31:33.447Z,13.79
2022-09-07T21:34:01.603Z,13.76
2022-09-07T21:36:28.854Z,13.69
2022-09-07T21:38:55.872Z,13.63
2022-09-07T21:43:59.686Z,13.63
2022-09-07T21:46:27.577Z,13.64
2022-09-07T21:48:55.727Z,13.63
2022-09-07T21:54:01.354Z,13.56
2022-09-07T21:56:29.486Z,13.50
2022-09-07T21:58:57.941Z,13.45
2022-09-07T22:03:57.656Z,13.36
2022-09-07T22:06:24.692Z,13.37
2022-09-07T22:08:51.254Z,13.32
2022-09-07T22:11:19.971Z,13.26
2022-09-07T22:13:46.724Z,13.19
2022-09-07T22:16:14.591Z,13.14
2022-09-07T22:18:45.596Z,13.14
2022-09-07T22:42:31.299Z,12.78
2022-09-07T22:44:58.804Z,12.78
2022-09-07T22:47:25.726Z,12.84
2022-09-07T22:49:52.477Z,12.85
2022-09-07T22:52:18.977Z,12.81
2022-09-07T22:54:45.806Z,12.74
2022-09-07T22:57:12.295Z,12.65
2022-09-07T22:59:38.842Z,12.63
2022-09-07T23:02:14.403Z,12.63
2022-09-07T23:04:41.396Z,12.65
2022-09-07T23:07:08.302Z,12.64
2022-09-07T23:09:34.849Z,12.61
2022-09-07T23:12:01.563Z,12.57
2022-09-07T23:14:28.106Z,12.54
2022-09-07T23:16:54.674Z,12.51
2022-09-07T23:19:21.559Z,12.54
2022-09-07T23:21:48.369Z,12.47
2022-09-07T23:24:17.169Z,12.42
2022-09-07T23:26:44.088Z,12.44
2022-09-07T23:29:12.961Z,12.40
2022-09-07T23:31:40.289Z,12.35
2022-09-07T23:34:07.742Z,12.33
2022-09-07T23:36:34.582Z,12.34
2022-09-07T23:39:01.428Z,12.32
2022-09-07T23:41:28.481Z,12.29
2022-09-07T23:43:55.418Z,12.28
2022-09-07T23:46:22.217Z,12.29
2022-09-07T23:48:49.140Z,12.25
2022-09-07T23:51:21.302Z,12.23
2022-09-07T23:53:50.793Z,12.23
2022-09-07T23:56:17.314Z,12.24
2022-09-07T23:58:44.029Z,12.18
